createdAt,value
2023-03-25T00:02:48.278Z,99858.69
2023-03-25T00:07:52.769Z,99847.78
2023-03-25T00:12:54.505Z,99853.38
2023-03-25T00:17:56.236Z,99845.03
2023-03-25T00:22:57.894Z,99838.44
2023-03-25T00:27:59.529Z,99852.00
2023-03-25T00:33:01.867Z,99829.53
2023-03-25T00:38:07.993Z,99834.78
2023-03-25T00:43:10.970Z,99835.69
2023-03-25T00:48:12.561Z,99828.75
2023-03-25T00:53:14.343Z,99831.25
2023-03-25T00:58:15.909Z,99821.84
2023-03-25T01:03:18.788Z,99829.47
2023-03-25T01:08:25.779Z,99826.66
2023-03-25T01:13:27.545Z,99834.91
2023-03-25T01:18:29.151Z,99832.16
2023-03-25T01:23:30.792Z,99825.25
2023-03-25T01:28:32.641Z,99822.50
2023-03-25T01:33:34.290Z,99814.50
2023-03-25T01:38:37.233Z,99825.25
2023-03-25T01:43:38.910Z,99807.34
2023-03-25T01:48:43.982Z,99794.78
2023-03-25T01:53:46.988Z,99803.97
2023-03-25T01:58:51.427Z,99807.25
2023-03-25T02:04:02.983Z,99805.28
2023-03-25T02:09:06.563Z,99809.16
2023-03-25T02:14:11.814Z,99814.91
2023-03-25T02:19:19.346Z,99816.19
2023-03-25T02:24:24.000Z,99810.72
2023-03-25T02:29:49.048Z,99798.13
2023-03-25T02:35:13.806Z,99791.50
2023-03-25T02:40:20.872Z,99785.91
2023-03-25T02:45:29.752Z,99789.19
2023-03-25T02:50:38.429Z,99790.84
2023-03-25T02:55:41.848Z,99801.28
2023-03-25T03:00:44.815Z,99781.72
2023-03-25T03:05:51.446Z,99775.59
2023-03-25T03:11:22.801Z,99764.03
2023-03-25T03:16:40.316Z,99759.88
2023-03-25T03:21:51.558Z,99766.97
2023-03-25T03:27:05.724Z,99767.44
2023-03-25T03:32:07.562Z,99760.53
2023-03-25T03:37:17.442Z,99771.78
2023-03-25T03:42:22.964Z,99767.44
2023-03-25T03:47:28.330Z,99763.84
2023-03-25T03:52:49.629Z,99771.13
2023-03-25T03:58:02.785Z,99779.47
2023-03-25T04:03:18.965Z,99782.41
2023-03-25T04:08:34.292Z,99765.38
2023-03-25T04:13:40.485Z,99768.75
2023-03-25T04:18:43.671Z,99777.31
2023-03-25T04:23:46.238Z,99764.00
2023-03-25T04:28:47.861Z,99770.06
2023-03-25T04:33:50.682Z,99772.19
2023-03-25T04:38:53.186Z,99770.84
2023-03-25T04:43:55.140Z,99784.84
2023-03-25T04:48:57.235Z,99772.56
2023-03-25T04:53:59.836Z,99782.53
2023-03-25T04:59:01.436Z,99783.84
2023-03-25T05:04:05.192Z,99792.91
2023-03-25T05:09:09.360Z,99795.38
2023-03-25T05:14:13.257Z,99803.88
2023-03-25T05:19:16.399Z,99805.09
2023-03-25T05:24:18.074Z,99809.47
2023-03-25T05:29:19.733Z,99796.50
2023-03-25T05:34:21.349Z,99806.59
2023-03-25T05:39:23.209Z,99813.22
2023-03-25T05:44:26.220Z,99817.66
2023-03-25T05:49:28.488Z,99833.00
2023-03-25T05:54:30.818Z,99822.59
2023-03-25T05:59:33.375Z,99833.03
2023-03-25T06:04:41.241Z,99838.84
2023-03-25T06:09:46.185Z,99844.06
2023-03-25T06:14:48.516Z,99836.41
2023-03-25T06:19:53.880Z,99839.81
2023-03-25T06:24:55.581Z,99834.34
2023-03-25T06:29:57.297Z,99833.75
2023-03-25T06:34:58.939Z,99837.53
2023-03-25T06:40:00.614Z,99830.63
2023-03-25T06:45:05.217Z,99853.69
2023-03-25T06:50:19.289Z,99853.41
2023-03-25T06:55:20.978Z,99859.84
2023-03-25T07:00:24.770Z,99850.34
2023-03-25T07:05:26.579Z,99853.03
2023-03-25T07:10:28.322Z,99855.59
2023-03-25T07:15:31.296Z,99860.66
2023-03-25T07:20:33.090Z,99850.72
2023-03-25T07:25:34.754Z,99853.09
2023-03-25T07:30:36.486Z,99874.66
2023-03-25T07:35:38.533Z,99868.88
2023-03-25T07:40:40.321Z,99870.50
2023-03-25T07:45:44.034Z,99874.50
2023-03-25T07:50:46.401Z,99874.84
2023-03-25T07:55:50.945Z,99886.50
2023-03-25T08:00:52.877Z,99880.63
2023-03-25T08:05:54.691Z,99884.75
2023-03-25T08:10:56.880Z,99892.81
2023-03-25T08:15:58.800Z,99896.38
2023-03-25T08:21:00.447Z,99905.69
2023-03-25T08:26:02.886Z,99908.50
2023-03-25T08:31:08.739Z,99913.63
2023-03-25T08:36:14.502Z,99914.88
2023-03-25T08:41:16.838Z,99912.03
2023-03-25T08:46:18.596Z,99924.53
2023-03-25T08:51:20.371Z,99923.81
2023-03-25T08:56:22.162Z,99921.31
2023-03-25T09:01:24.388Z,99909.88
2023-03-25T09:06:26.222Z,99915.50
2023-03-25T09:11:36.635Z,99923.28
2023-03-25T09:16:38.782Z,99937.53
2023-03-25T09:21:40.584Z,99926.16
2023-03-25T09:26:42.243Z,99950.06
2023-03-25T09:31:43.990Z,99950.47
2023-03-25T09:36:45.932Z,99962.25
2023-03-25T09:41:59.585Z,99951.13
2023-03-25T09:47:03.172Z,99951.19
2023-03-25T09:52:08.198Z,99966.22
2023-03-25T09:57:17.565Z,99957.81
2023-03-25T10:02:44.309Z,99969.19
2023-03-25T10:07:53.110Z,99977.09
2023-03-25T10:13:40.912Z,99967.41
2023-03-25T10:19:27.093Z,99981.13
2023-03-25T10:24:38.212Z,99997.53
2023-03-25T10:30:10.271Z,100004.72
2023-03-25T10:35:34.544Z,99994.19
2023-03-25T10:40:44.827Z,100005.66
2023-03-25T10:45:48.320Z,100025.00
2023-03-25T10:50:53.577Z,100018.22
2023-03-25T10:56:03.669Z,100000.31
2023-03-25T11:01:14.318Z,100018.22
2023-03-25T11:06:26.756Z,100011.25
2023-03-25T11:11:36.688Z,100017.59
2023-03-25T11:16:52.705Z,100029.41
2023-03-25T11:22:01.710Z,100029.41
2023-03-25T11:27:07.274Z,100018.22
2023-03-25T11:32:15.137Z,100031.63
2023-03-25T11:37:20.380Z,100034.22
2023-03-25T11:42:43.001Z,100034.72
2023-03-25T11:47:47.025Z,100046.38
2023-03-25T11:52:53.461Z,100042.38
2023-03-25T11:57:58.784Z,100034.06
2023-03-25T12:03:23.226Z,100020.50
2023-03-25T12:08:24.981Z,100028.44
2023-03-25T12:13:45.021Z,100033.72
2023-03-25T12:19:05.731Z,100021.81
2023-03-25T12:24:28.332Z,100037.69
2023-03-25T12:29:38.409Z,100042.63
2023-03-25T12:35:18.127Z,100052.31
2023-03-25T12:40:59.005Z,100044.75
2023-03-25T12:46:21.451Z,100037.31
2023-03-25T12:51:26.331Z,100045.53
2023-03-25T12:56:57.194Z,100045.53
2023-03-25T13:02:27.989Z,100061.34
2023-03-25T13:07:36.653Z,100039.38
2023-03-25T13:12:43.116Z,100053.66
2023-03-25T13:17:51.730Z,100067.88
2023-03-25T13:22:59.712Z,100099.34
2023-03-25T13:28:06.560Z,100079.25
2023-03-25T13:33:14.772Z,100093.81
2023-03-25T13:38:24.814Z,100093.81
2023-03-25T13:43:35.133Z,100079.66
2023-03-25T13:48:45.959Z,100093.19
2023-03-25T13:53:57.421Z,100087.94
2023-03-25T13:59:13.118Z,100103.50
2023-03-25T14:04:24.844Z,100103.94
2023-03-25T14:09:52.231Z,100133.22
2023-03-25T14:15:00.937Z,100136.34
2023-03-25T14:20:08.346Z,100145.44
2023-03-25T14:25:39.811Z,100186.06
2023-03-25T14:30:43.215Z,100198.03
2023-03-25T14:35:47.328Z,100203.78
2023-03-25T14:41:02.833Z,100181.34
2023-03-25T14:46:11.318Z,100201.47
2023-03-25T14:51:23.537Z,100224.94
2023-03-25T14:56:36.441Z,100212.69
2023-03-25T15:01:40.445Z,100197.06
2023-03-25T15:06:43.353Z,100193.56
2023-03-25T15:11:58.214Z,100213.50
2023-03-25T15:17:13.179Z,100235.69
2023-03-25T15:22:21.230Z,100257.41
2023-03-25T15:27:44.650Z,100249.41
2023-03-25T15:32:52.512Z,100236.31
2023-03-25T15:38:19.316Z,100233.88
2023-03-25T15:44:00.220Z,100237.59
2023-03-25T15:49:15.063Z,100239.53
2023-03-25T15:54:32.585Z,100245.69
2023-03-25T16:00:20.738Z,100262.22
2023-03-25T16:05:23.139Z,100279.88
2023-03-25T16:10:32.781Z,100269.88
2023-03-25T16:15:37.058Z,100282.38
2023-03-25T16:20:38.805Z,100279.22
2023-03-25T16:25:42.172Z,100283.97
2023-03-25T16:30:48.863Z,100292.94
2023-03-25T16:36:01.879Z,100300.94
2023-03-25T16:41:24.200Z,100308.84
2023-03-25T16:46:26.433Z,100305.13
2023-03-25T16:51:36.189Z,100306.34
2023-03-25T16:56:39.387Z,100308.88
2023-03-25T17:01:44.973Z,100319.50
2023-03-25T17:06:53.504Z,100323.22
2023-03-25T17:11:57.682Z,100332.13
2023-03-25T17:17:08.679Z,100332.91
2023-03-25T17:22:19.109Z,100342.75
2023-03-25T17:27:36.044Z,100335.59
2023-03-25T17:32:44.899Z,100339.41
2023-03-25T17:37:51.077Z,100355.00
2023-03-25T17:42:53.408Z,100369.19
2023-03-25T17:47:55.069Z,100378.50
2023-03-25T17:52:57.536Z,100381.84
2023-03-25T17:57:59.342Z,100407.59
2023-03-25T18:03:01.384Z,100396.34
2023-03-25T18:08:04.381Z,100389.75
2023-03-25T18:13:06.188Z,100404.78
2023-03-25T18:18:24.272Z,100411.09
2023-03-25T18:23:26.000Z,100423.13
2023-03-25T18:28:27.747Z,100426.66
2023-03-25T18:33:32.745Z,100435.72
2023-03-25T18:38:34.374Z,100420.63
2023-03-25T18:43:36.069Z,100433.84
2023-03-25T18:48:37.733Z,100434.56
2023-03-25T18:53:40.554Z,100442.44
2023-03-25T18:58:42.287Z,100445.03
2023-03-25T19:03:44.901Z,100445.72
2023-03-25T19:08:47.497Z,100451.69
2023-03-25T19:13:50.806Z,100463.81
2023-03-25T19:18:52.476Z,100474.59
2023-03-25T19:23:54.150Z,100482.50
2023-03-25T19:28:56.029Z,100488.50
2023-03-25T19:33:58.220Z,100482.47
2023-03-25T19:39:05.565Z,100473.22
2023-03-25T19:44:07.368Z,100460.88
2023-03-25T19:49:08.988Z,100461.56
2023-03-25T19:54:13.638Z,100463.94
2023-03-25T19:59:17.345Z,100469.38
2023-03-25T20:04:18.967Z,100472.63
2023-03-25T20:09:20.625Z,100486.16
2023-03-25T20:14:22.771Z,100485.00
2023-03-25T20:19:25.021Z,100477.13
2023-03-25T20:24:27.252Z,100478.09
2023-03-25T20:29:29.266Z,100472.13
2023-03-25T20:34:31.514Z,100473.13
2023-03-25T20:39:33.375Z,100475.19
2023-03-25T20:44:35.712Z,100481.56
2023-03-25T20:49:38.052Z,100478.47
2023-03-25T20:54:39.631Z,100482.78
2023-03-25T20:59:41.577Z,100473.03
2023-03-25T21:04:43.452Z,100465.78
2023-03-25T21:09:48.543Z,100464.94
2023-03-25T21:14:50.418Z,100477.47
2023-03-25T21:19:52.231Z,100498.09
2023-03-25T21:24:54.958Z,100503.78
2023-03-25T21:29:56.635Z,100497.66
2023-03-25T21:34:59.731Z,100492.56
2023-03-25T21:40:01.464Z,100503.91
2023-03-25T21:45:03.286Z,100512.13
2023-03-25T21:50:09.800Z,100514.19
2023-03-25T21:55:12.614Z,100516.63
2023-03-25T22:00:17.297Z,100532.56
2023-03-25T22:05:19.022Z,100536.84
2023-03-25T22:10:26.792Z,100543.00
2023-03-25T22:15:29.610Z,100541.81
2023-03-25T22:20:31.223Z,100552.66
2023-03-25T22:25:32.831Z,100551.09
2023-03-25T22:30:34.505Z,100561.22
2023-03-25T22:35:38.576Z,100553.69
2023-03-25T22:40:40.347Z,100546.44
2023-03-25T22:45:41.973Z,100553.66
2023-03-25T22:50:43.701Z,100553.66
2023-03-25T22:55:53.293Z,100546.56
2023-03-25T23:00:57.042Z,100555.81
2023-03-25T23:06:06.384Z,100544.66
2023-03-25T23:11:17.039Z,100544.28
2023-03-25T23:16:23.070Z,100557.34
2023-03-25T23:21:28.560Z,100562.00
2023-03-25T23:26:36.738Z,100552.38
2023-03-25T23:31:41.839Z,100551.50
2023-03-25T23:36:44.219Z,100545.97
2023-03-25T23:41:45.826Z,100536.66
2023-03-25T23:46:47.955Z,100529.09
2023-03-25T23:51:51.040Z,100532.50
2023-03-25T23:56:52.838Z,100528.41
